sensor_id;sensor_type;location;lat;lon;timestamp;pressure;altitude;pressure_sealevel;temperature;humidity
3096;BME280;1558;42.700;23.360;2023-03-04T00:00:20;95382.72;;;5.82;100.00
3096;BME280;1558;42.700;23.360;2023-03-04T00:02:48;95387.28;;;5.81;100.00
3096;BME280;1558;42.700;23.360;2023-03-04T00:05:16;95385.19;;;5.78;100.00
3096;BME280;1558;42.700;23.360;2023-03-04T00:07:43;95375.41;;;5.74;100.00
3096;BME280;1558;42.700;23.360;2023-03-04T00:10:11;95339.94;;;5.55;100.00
3096;BME280;1558;42.700;23.360;2023-03-04T00:12:39;95360.25;;;5.69;100.00
3096;BME280;1558;42.700;23.360;2023-03-04T00:15:09;95388.19;;;5.90;100.00
3096;BME280;1558;42.700;23.360;2023-03-04T00:17:37;95372.94;;;5.77;100.00
3096;BME280;1558;42.700;23.360;2023-03-04T00:20:06;95378.69;;;5.84;100.00
3096;BME280;1558;42.700;23.360;2023-03-04T00:22:34;95377.88;;;5.84;100.00
3096;BME280;1558;42.700;23.360;2023-03-04T00:25:03;95380.84;;;5.82;100.00
3096;BME280;1558;42.700;23.360;2023-03-04T00:27:31;95369.03;;;5.83;100.00
3096;BME280;1558;42.700;23.360;2023-03-04T00:29:59;95364.38;;;5.75;100.00
3096;BME280;1558;42.700;23.360;2023-03-04T00:32:28;95358.94;;;5.80;100.00
3096;BME280;1558;42.700;23.360;2023-03-04T00:34:56;95365.50;;;5.88;100.00
3096;BME280;1558;42.700;23.360;2023-03-04T00:37:24;95358.75;;;5.77;100.00
3096;BME280;1558;42.700;23.360;2023-03-04T00:39:52;95364.28;;;5.80;100.00
3096;BME280;1558;42.700;23.360;2023-03-04T00:42:19;95363.63;;;5.88;100.00
3096;BME280;1558;42.700;23.360;2023-03-04T00:44:47;95365.69;;;5.91;100.00
3096;BME280;1558;42.700;23.360;2023-03-04T00:47:19;95354.00;;;5.87;100.00
3096;BME280;1558;42.700;23.360;2023-03-04T00:49:48;95364.41;;;5.89;100.00
3096;BME280;1558;42.700;23.360;2023-03-04T00:52:16;95350.25;;;5.88;100.00
3096;BME280;1558;42.700;23.360;2023-03-04T00:54:44;95360.34;;;5.91;100.00
3096;BME280;1558;42.700;23.360;2023-03-04T00:57:12;95358.16;;;5.93;100.00
3096;BME280;1558;42.700;23.360;2023-03-04T00:59:40;95356.56;;;5.92;100.00
3096;BME280;1558;42.700;23.360;2023-03-04T01:02:09;95341.22;;;5.84;100.00
3096;BME280;1558;42.700;23.360;2023-03-04T01:04:37;95341.22;;;5.84;100.00
3096;BME280;1558;42.700;23.360;2023-03-04T01:07:08;95340.81;;;5.77;100.00
3096;BME280;1558;42.700;23.360;2023-03-04T01:09:36;95344.19;;;5.69;100.00
3096;BME280;1558;42.700;23.360;2023-03-04T01:12:05;95359.44;;;5.82;100.00
3096;BME280;1558;42.700;23.360;2023-03-04T01:14:33;95349.03;;;5.81;100.00
3096;BME280;1558;42.700;23.360;2023-03-04T01:17:01;95356.78;;;5.82;100.00
3096;BME280;1558;42.700;23.360;2023-03-04T01:19:29;95343.50;;;5.77;100.00
3096;BME280;1558;42.700;23.360;2023-03-04T01:21:57;95352.72;;;5.85;100.00
3096;BME280;1558;42.700;23.360;2023-03-04T01:24:26;95345.69;;;5.89;100.00
3096;BME280;1558;42.700;23.360;2023-03-04T01:26:55;95352.50;;;5.95;100.00
3096;BME280;1558;42.700;23.360;2023-03-04T01:29:23;95343.66;;;5.94;100.00
3096;BME280;1558;42.700;23.360;2023-03-04T01:31:51;95342.69;;;5.90;100.00
3096;BME280;1558;42.700;23.360;2023-03-04T01:34:19;95237.66;;;5.22;100.00
3096;BME280;1558;42.700;23.360;2023-03-04T01:36:47;95341.91;;;5.90;100.00
3096;BME280;1558;42.700;23.360;2023-03-04T01:39:15;95343.28;;;5.87;100.00
3096;BME280;1558;42.700;23.360;2023-03-04T01:41:44;95341.09;;;5.76;100.00
3096;BME280;1558;42.700;23.360;2023-03-04T01:44:12;95329.81;;;5.79;100.00
3096;BME280;1558;42.700;23.360;2023-03-04T01:46:44;95328.91;;;5.83;100.00
3096;BME280;1558;42.700;23.360;2023-03-04T01:49:14;95323.84;;;5.82;100.00
3096;BME280;1558;42.700;23.360;2023-03-04T01:51:43;95320.88;;;5.83;100.00
3096;BME280;1558;42.700;23.360;2023-03-04T01:54:13;95317.31;;;5.74;100.00
3096;BME280;1558;42.700;23.360;2023-03-04T01:56:45;95283.97;;;5.58;100.00
3096;BME280;1558;42.700;23.360;2023-03-04T01:59:15;95307.81;;;5.68;100.00
3096;BME280;1558;42.700;23.360;2023-03-04T02:01:45;95315.63;;;5.78;100.00
3096;BME280;1558;42.700;23.360;2023-03-04T02:04:15;95309.31;;;5.74;100.00
3096;BME280;1558;42.700;23.360;2023-03-04T02:06:44;95318.31;;;5.78;100.00
3096;BME280;1558;42.700;23.360;2023-03-04T02:09:13;95324.38;;;5.70;100.00
3096;BME280;1558;42.700;23.360;2023-03-04T02:11:42;95319.50;;;5.59;100.00
3096;BME280;1558;42.700;23.360;2023-03-04T02:14:12;95314.78;;;5.56;100.00
3096;BME280;1558;42.700;23.360;2023-03-04T02:16:41;95288.66;;;5.39;100.00
3096;BME280;1558;42.700;23.360;2023-03-04T02:19:15;95310.63;;;5.63;100.00
3096;BME280;1558;42.700;23.360;2023-03-04T02:21:46;95314.38;;;5.62;100.00
3096;BME280;1558;42.700;23.360;2023-03-04T02:24:17;95292.00;;;5.44;100.00
3096;BME280;1558;42.700;23.360;2023-03-04T02:26:48;95306.28;;;5.54;100.00
3096;BME280;1558;42.700;23.360;2023-03-04T02:29:17;95269.25;;;5.20;100.00
3096;BME280;1558;42.700;23.360;2023-03-04T02:31:46;95314.41;;;5.48;100.00
3096;BME280;1558;42.700;23.360;2023-03-04T02:34:16;95292.22;;;5.34;100.00
3096;BME280;1558;42.700;23.360;2023-03-04T02:36:45;95318.72;;;5.44;100.00
3096;BME280;1558;42.700;23.360;2023-03-04T02:39:22;95276.06;;;5.12;100.00
3096;BME280;1558;42.700;23.360;2023-03-04T02:41:52;95305.28;;;5.36;100.00
3096;BME280;1558;42.700;23.360;2023-03-04T02:44:23;95265.16;;;5.09;100.00
3096;BME280;1558;42.700;23.360;2023-03-04T02:46:52;95302.13;;;5.34;100.00
3096;BME280;1558;42.700;23.360;2023-03-04T02:49:21;95302.28;;;5.37;100.00
3096;BME280;1558;42.700;23.360;2023-03-04T02:51:51;95304.00;;;5.33;100.00
3096;BME280;1558;42.700;23.360;2023-03-04T02:54:22;95270.41;;;5.14;100.00
3096;BME280;1558;42.700;23.360;2023-03-04T02:56:53;95300.63;;;5.28;100.00
3096;BME280;1558;42.700;23.360;2023-03-04T02:59:21;95301.91;;;5.30;100.00
3096;BME280;1558;42.700;23.360;2023-03-04T03:01:50;95299.75;;;5.32;100.00
3096;BME280;1558;42.700;23.360;2023-03-04T03:04:19;95301.31;;;5.33;100.00
3096;BME280;1558;42.700;23.360;2023-03-04T03:06:48;95296.06;;;5.28;100.00
3096;BME280;1558;42.700;23.360;2023-03-04T03:09:16;95309.75;;;5.27;100.00
3096;BME280;1558;42.700;23.360;2023-03-04T03:11:44;95311.63;;;5.13;100.00
3096;BME280;1558;42.700;23.360;2023-03-04T03:14:14;95316.56;;;5.19;100.00
3096;BME280;1558;42.700;23.360;2023-03-04T03:16:42;95300.34;;;5.16;100.00
3096;BME280;1558;42.700;23.360;2023-03-04T03:19:09;95289.44;;;5.12;100.00
3096;BME280;1558;42.700;23.360;2023-03-04T03:21:37;95305.47;;;5.26;100.00
3096;BME280;1558;42.700;23.360;2023-03-04T03:24:05;95304.50;;;5.22;100.00
3096;BME280;1558;42.700;23.360;2023-03-04T03:26:34;95312.13;;;5.15;100.00
3096;BME280;1558;42.700;23.360;2023-03-04T03:29:02;95309.22;;;5.11;100.00
3096;BME280;1558;42.700;23.360;2023-03-04T03:31:31;95299.53;;;5.02;100.00
3096;BME280;1558;42.700;23.360;2023-03-04T03:33:59;95258.84;;;4.77;100.00
3096;BME280;1558;42.700;23.360;2023-03-04T03:36:27;95299.91;;;5.09;100.00
3096;BME280;1558;42.700;23.360;2023-03-04T03:38:55;95279.44;;;5.04;100.00
3096;BME280;1558;42.700;23.360;2023-03-04T03:41:23;95290.25;;;5.13;100.00
3096;BME280;1558;42.700;23.360;2023-03-04T03:43:51;95251.91;;;4.90;100.00
3096;BME280;1558;42.700;23.360;2023-03-04T03:46:18;95293.31;;;5.20;100.00
3096;BME280;1558;42.700;23.360;2023-03-04T03:48:48;95292.03;;;5.17;100.00
3096;BME280;1558;42.700;23.360;2023-03-04T03:51:15;95250.63;;;4.88;100.00
3096;BME280;1558;42.700;23.360;2023-03-04T03:53:43;95292.91;;;5.26;100.00
3096;BME280;1558;42.700;23.360;2023-03-04T03:56:11;95288.03;;;5.28;100.00
3096;BME280;1558;42.700;23.360;2023-03-04T03:58:39;95276.16;;;5.21;100.00
3096;BME280;1558;42.700;23.360;2023-03-04T04:01:07;95289.25;;;5.22;100.00
3096;BME280;1558;42.700;23.360;2023-03-04T04:03:35;95282.03;;;5.23;100.00
3096;BME280;1558;42.700;23.360;2023-03-04T04:06:05;95286.38;;;5.19;100.00
3096;BME280;1558;42.700;23.360;2023-03-04T04:08:33;95276.16;;;5.21;100.00
3096;BME280;1558;42.700;23.360;2023-03-04T04:11:01;95271.44;;;5.18;100.00
3096;BME280;1558;42.700;23.360;2023-03-04T04:13:29;95273.63;;;5.16;100.00
3096;BME280;1558;42.700;23.360;2023-03-04T04:15:56;95280.13;;;5.10;100.00
3096;BME280;1558;42.700;23.360;2023-03-04T04:18:25;95280.63;;;4.98;100.00
3096;BME280;1558;42.700;23.360;2023-03-04T04:20:53;95264.59;;;4.85;100.00
3096;BME280;1558;42.700;23.360;2023-03-04T04:23:22;95275.97;;;4.90;100.00
3096;BME280;1558;42.700;23.360;2023-03-04T04:25:50;95273.78;;;4.92;100.00
3096;BME280;1558;42.700;23.360;2023-03-04T04:28:18;95266.47;;;4.84;100.00
3096;BME280;1558;42.700;23.360;2023-03-04T04:30:46;95273.09;;;4.87;100.00
3096;BME280;1558;42.700;23.360;2023-03-04T04:33:15;95257.25;;;4.76;100.00
3096;BME280;1558;42.700;23.360;2023-03-04T04:35:43;95280.53;;;4.90;100.00
3096;BME280;1558;42.700;23.360;2023-03-04T04:38:11;95275.97;;;4.90;100.00
3096;BME280;1558;42.700;23.360;2023-03-04T04:40:40;95275.47;;;4.88;100.00
3096;BME280;1558;42.700;23.360;2023-03-04T04:43:09;95280.91;;;4.83;100.00
3096;BME280;1558;42.700;23.360;2023-03-04T04:45:37;95267.53;;;4.69;100.00
3096;BME280;1558;42.700;23.360;2023-03-04T04:48:05;95280.50;;;4.76;100.00
3096;BME280;1558;42.700;23.360;2023-03-04T04:50:34;95278.84;;;4.80;100.00
3096;BME280;1558;42.700;23.360;2023-03-04T04:53:02;95278.72;;;4.71;100.00
3096;BME280;1558;42.700;23.360;2023-03-04T04:55:30;95280.41;;;4.67;100.00
3096;BME280;1558;42.700;23.360;2023-03-04T04:58:00;95269.59;;;4.59;100.00
3096;BME280;1558;42.700;23.360;2023-03-04T05:00:28;95242.44;;;4.38;100.00
3096;BME280;1558;42.700;23.360;2023-03-04T05:02:55;95286.50;;;4.54;100.00
3096;BME280;1558;42.700;23.360;2023-03-04T05:05:23;95299.09;;;4.67;100.00
3096;BME280;1558;42.700;23.360;2023-03-04T05:07:51;95294.25;;;4.69;100.00
3096;BME280;1558;42.700;23.360;2023-03-04T05:10:19;95304.34;;;4.72;100.00
3096;BME280;1558;42.700;23.360;2023-03-04T05:12:47;95296.44;;;4.67;100.00
3096;BME280;1558;42.700;23.360;2023-03-04T05:15:16;95305.00;;;4.64;100.00
3096;BME280;1558;42.700;23.360;2023-03-04T05:17:44;95310.34;;;4.64;100.00
3096;BME280;1558;42.700;23.360;2023-03-04T05:20:12;95308.78;;;4.63;100.00
3096;BME280;1558;42.700;23.360;2023-03-04T05:22:40;95305.44;;;4.71;100.00
3096;BME280;1558;42.700;23.360;2023-03-04T05:25:08;95305.97;;;4.87;100.00
3096;BME280;1558;42.700;23.360;2023-03-04T05:27:36;95307.84;;;4.87;100.00
3096;BME280;1558;42.700;23.360;2023-03-04T05:30:05;95311.59;;;4.86;100.00
3096;BME280;1558;42.700;23.360;2023-03-04T05:32:35;95318.72;;;4.90;100.00
3096;BME280;1558;42.700;23.360;2023-03-04T05:35:03;95315.94;;;4.95;100.00
3096;BME280;1558;42.700;23.360;2023-03-04T05:37:31;95324.88;;;5.04;100.00
3096;BME280;1558;42.700;23.360;2023-03-04T05:39:59;95323.09;;;5.00;100.00
3096;BME280;1558;42.700;23.360;2023-03-04T05:42:27;95320.22;;;4.96;100.00
3096;BME280;1558;42.700;23.360;2023-03-04T05:44:55;95300.91;;;4.86;100.00
3096;BME280;1558;42.700;23.360;2023-03-04T05:47:23;95324.19;;;4.99;100.00
3096;BME280;1558;42.700;23.360;2023-03-04T05:49:52;95282.09;;;4.77;100.00
3096;BME280;1558;42.700;23.360;2023-03-04T05:52:20;95305.25;;;5.09;100.00
3096;BME280;1558;42.700;23.360;2023-03-04T05:54:48;95278.72;;;4.85;100.00
3096;BME280;1558;42.700;23.360;2023-03-04T05:57:15;95326.78;;;5.17;100.00
3096;BME280;1558;42.700;23.360;2023-03-04T05:59:43;95329.84;;;5.24;100.00
3096;BME280;1558;42.700;23.360;2023-03-04T06:02:11;95338.56;;;5.30;100.00
3096;BME280;1558;42.700;23.360;2023-03-04T06:04:39;95320.72;;;5.25;100.00
3096;BME280;1558;42.700;23.360;2023-03-04T06:07:09;95347.75;;;5.37;100.00
3096;BME280;1558;42.700;23.360;2023-03-04T06:09:36;95345.28;;;5.41;100.00
3096;BME280;1558;42.700;23.360;2023-03-04T06:12:05;95344.72;;;5.44;100.00
3096;BME280;1558;42.700;23.360;2023-03-04T06:14:32;95337.19;;;5.46;100.00
3096;BME280;1558;42.700;23.360;2023-03-04T06:17:00;95345.50;;;5.58;100.00
3096;BME280;1558;42.700;23.360;2023-03-04T06:19:29;95339.25;;;5.49;100.00
3096;BME280;1558;42.700;23.360;2023-03-04T06:21:56;95342.22;;;5.47;100.00
3096;BME280;1558;42.700;23.360;2023-03-04T06:24:26;95350.63;;;5.55;100.00
3096;BME280;1558;42.700;23.360;2023-03-04T06:26:55;95333.59;;;5.51;100.00
3096;BME280;1558;42.700;23.360;2023-03-04T06:29:23;95341.72;;;5.59;100.00
3096;BME280;1558;42.700;23.360;2023-03-04T06:31:50;95353.22;;;5.60;100.00
3096;BME280;1558;42.700;23.360;2023-03-04T06:34:19;95347.06;;;5.73;100.00
3096;BME280;1558;42.700;23.360;2023-03-04T06:36:47;95351.31;;;5.87;100.00
3096;BME280;1558;42.700;23.360;2023-03-04T06:39:15;95338.72;;;5.88;100.00
3096;BME280;1558;42.700;23.360;2023-03-04T06:41:44;95350.03;;;5.98;100.00
3096;BME280;1558;42.700;23.360;2023-03-04T06:44:12;95351.38;;;6.09;100.00
3096;BME280;1558;42.700;23.360;2023-03-04T06:46:40;95340.28;;;6.02;100.00
3096;BME280;1558;42.700;23.360;2023-03-04T06:49:08;95340.19;;;6.07;100.00
3096;BME280;1558;42.700;23.360;2023-03-04T06:51:36;95343.22;;;6.14;100.00
3096;BME280;1558;42.700;23.360;2023-03-04T06:54:04;95334.13;;;6.02;100.00
3096;BME280;1558;42.700;23.360;2023-03-04T06:56:32;95363.75;;;6.19;100.00
3096;BME280;1558;42.700;23.360;2023-03-04T06:59:01;95338.38;;;6.17;100.00
3096;BME280;1558;42.700;23.360;2023-03-04T07:01:29;95319.34;;;6.04;100.00
3096;BME280;1558;42.700;23.360;2023-03-04T07:03:57;95344.47;;;6.31;100.00
3096;BME280;1558;42.700;23.360;2023-03-04T07:06:27;95361.75;;;6.47;100.00
3096;BME280;1558;42.700;23.360;2023-03-04T07:08:56;95361.41;;;6.40;100.00
3096;BME280;1558;42.700;23.360;2023-03-04T07:11:24;95357.25;;;6.34;100.00
3096;BME280;1558;42.700;23.360;2023-03-04T07:13:54;95361.28;;;6.23;100.00
3096;BME280;1558;42.700;23.360;2023-03-04T07:16:24;95362.56;;;6.25;100.00
3096;BME280;1558;42.700;23.360;2023-03-04T07:18:52;95361.44;;;6.26;100.00
3096;BME280;1558;42.700;23.360;2023-03-04T07:21:20;95361.81;;;6.33;100.00
3096;BME280;1558;42.700;23.360;2023-03-04T07:23:48;95372.09;;;6.40;100.00
3096;BME280;1558;42.700;23.360;2023-03-04T07:26:16;95361.00;;;6.46;100.00
3096;BME280;1558;42.700;23.360;2023-03-04T07:28:44;95366.03;;;6.48;100.00
3096;BME280;1558;42.700;23.360;2023-03-04T07:31:19;95360.81;;;6.65;100.00
3096;BME280;1558;42.700;23.360;2023-03-04T07:33:51;95361.47;;;6.70;100.00
3096;BME280;1558;42.700;23.360;2023-03-04T07:36:18;95364.50;;;6.77;100.00
3096;BME280;1558;42.700;23.360;2023-03-04T07:38:48;95368.00;;;6.78;100.00
3096;BME280;1558;42.700;23.360;2023-03-04T07:41:16;95354.97;;;6.63;100.00
3096;BME280;1558;42.700;23.360;2023-03-04T07:43:44;95363.88;;;6.72;100.00
3096;BME280;1558;42.700;23.360;2023-03-04T07:46:12;95370.06;;;6.59;100.00
3096;BME280;1558;42.700;23.360;2023-03-04T07:48:40;95368.28;;;6.54;100.00
3096;BME280;1558;42.700;23.360;2023-03-04T07:51:12;95364.28;;;6.65;100.00
3096;BME280;1558;42.700;23.360;2023-03-04T07:53:42;95363.63;;;6.82;100.00
3096;BME280;1558;42.700;23.360;2023-03-04T07:56:13;95356.97;;;6.79;100.00
3096;BME280;1558;42.700;23.360;2023-03-04T07:58:41;95337.50;;;6.65;100.00
3096;BME280;1558;42.700;23.360;2023-03-04T08:01:10;95353.50;;;6.79;100.00
3096;BME280;1558;42.700;23.360;2023-03-04T08:03:40;95365.53;;;6.90;100.00
3096;BME280;1558;42.700;23.360;2023-03-04T08:06:11;95357.22;;;6.92;100.00
3096;BME280;1558;42.700;23.360;2023-03-04T08:08:39;95359.47;;;6.98;100.00
3096;BME280;1558;42.700;23.360;2023-03-04T08:11:10;95350.47;;;6.72;100.00
3096;BME280;1558;42.700;23.360;2023-03-04T08:13:38;95335.19;;;6.50;100.00
3096;BME280;1558;42.700;23.360;2023-03-04T08:16:07;95359.22;;;6.42;100.00
3096;BME280;1558;42.700;23.360;2023-03-04T08:18:35;95357.25;;;6.34;100.00
3096;BME280;1558;42.700;23.360;2023-03-04T08:21:08;95357.38;;;6.29;100.00
3096;BME280;1558;42.700;23.360;2023-03-04T08:23:37;95330.94;;;6.13;100.00
3096;BME280;1558;42.700;23.360;2023-03-04T08:26:08;95360.78;;;6.43;100.00
3096;BME280;1558;42.700;23.360;2023-03-04T08:28:36;95354.28;;;6.57;100.00
3096;BME280;1558;42.700;23.360;2023-03-04T08:31:04;95359.97;;;6.56;100.00
3096;BME280;1558;42.700;23.360;2023-03-04T08:33:33;95358.50;;;6.50;100.00
3096;BME280;1558;42.700;23.360;2023-03-04T08:36:01;95335.41;;;6.40;100.00
3096;BME280;1558;42.700;23.360;2023-03-04T08:38:29;95329.88;;;6.37;100.00
3096;BME280;1558;42.700;23.360;2023-03-04T08:40:59;95350.78;;;6.35;100.00
3096;BME280;1558;42.700;23.360;2023-03-04T08:43:29;95357.22;;;6.47;100.00
3096;BME280;1558;42.700;23.360;2023-03-04T08:45:57;95336.69;;;6.43;100.00
3096;BME280;1558;42.700;23.360;2023-03-04T08:48:25;95291.44;;;6.19;100.00
3096;BME280;1558;42.700;23.360;2023-03-04T08:50:53;95294.81;;;6.25;100.00
3096;BME280;1558;42.700;23.360;2023-03-04T08:53:21;95337.13;;;6.58;100.00
3096;BME280;1558;42.700;23.360;2023-03-04T08:55:50;95354.03;;;6.90;100.00
3096;BME280;1558;42.700;23.360;2023-03-04T08:58:19;95338.97;;;7.02;100.00
3096;BME280;1558;42.700;23.360;2023-03-04T09:00:48;95340.28;;;7.13;100.00
3096;BME280;1558;42.700;23.360;2023-03-04T09:03:17;95337.94;;;7.20;100.00
3096;BME280;1558;42.700;23.360;2023-03-04T09:05:49;95340.91;;;7.49;100.00
3096;BME280;1558;42.700;23.360;2023-03-04T09:08:25;95303.91;;;7.77;100.00
3096;BME280;1558;42.700;23.360;2023-03-04T09:10:54;95332.50;;;7.99;100.00
3096;BME280;1558;42.700;23.360;2023-03-04T09:13:24;95328.69;;;7.83;100.00
3096;BME280;1558;42.700;23.360;2023-03-04T09:15:53;95332.81;;;8.06;100.00
3096;BME280;1558;42.700;23.360;2023-03-04T09:18:23;95318.31;;;8.07;100.00
3096;BME280;1558;42.700;23.360;2023-03-04T09:20:51;95325.53;;;7.89;100.00
3096;BME280;1558;42.700;23.360;2023-03-04T09:23:20;95276.22;;;7.60;100.00
3096;BME280;1558;42.700;23.360;2023-03-04T09:25:48;95316.22;;;7.78;100.00
3096;BME280;1558;42.700;23.360;2023-03-04T09:28:17;95319.53;;;7.84;100.00
3096;BME280;1558;42.700;23.360;2023-03-04T09:30:47;95253.94;;;7.59;100.00
3096;BME280;1558;42.700;23.360;2023-03-04T09:33:15;95316.72;;;7.89;100.00
3096;BME280;1558;42.700;23.360;2023-03-04T09:35:43;95298.03;;;7.67;100.00
3096;BME280;1558;42.700;23.360;2023-03-04T09:38:11;95311.34;;;7.89;100.00
3096;BME280;1558;42.700;23.360;2023-03-04T09:40:41;95311.09;;;7.51;100.00
3096;BME280;1558;42.700;23.360;2023-03-04T09:43:16;95307.28;;;7.52;100.00
3096;BME280;1558;42.700;23.360;2023-03-04T09:45:50;95290.97;;;7.31;100.00
3096;BME280;1558;42.700;23.360;2023-03-04T09:48:21;95271.41;;;7.31;100.00
3096;BME280;1558;42.700;23.360;2023-03-04T09:51:03;95302.25;;;7.59;100.00
3096;BME280;1558;42.700;23.360;2023-03-04T09:53:38;95288.97;;;7.45;100.00
3096;BME280;1558;42.700;23.360;2023-03-04T09:56:10;95285.47;;;7.36;100.00
3096;BME280;1558;42.700;23.360;2023-03-04T09:58:59;95280.50;;;7.69;100.00
3096;BME280;1558;42.700;23.360;2023-03-04T10:01:36;95238.66;;;7.68;100.00
3096;BME280;1558;42.700;23.360;2023-03-04T10:04:13;95266.34;;;8.37;100.00
3096;BME280;1558;42.700;23.360;2023-03-04T10:06:43;95292.31;;;8.97;100.00
3096;BME280;1558;42.700;23.360;2023-03-04T10:09:22;95278.75;;;8.93;100.00
3096;BME280;1558;42.700;23.360;2023-03-04T10:11:59;95253.28;;;8.82;100.00
3096;BME280;1558;42.700;23.360;2023-03-04T10:14:37;95253.66;;;8.63;100.00
3096;BME280;1558;42.700;23.360;2023-03-04T10:17:13;95224.06;;;8.63;100.00
3096;BME280;1558;42.700;23.360;2023-03-04T10:19:51;95277.81;;;9.27;100.00
3096;BME280;1558;42.700;23.360;2023-03-04T10:22:26;95271.19;;;9.24;100.00
3096;BME280;1558;42.700;23.360;2023-03-04T10:24:57;95272.03;;;9.45;100.00
3096;BME280;1558;42.700;23.360;2023-03-04T10:27:25;95268.56;;;9.45;100.00
3096;BME280;1558;42.700;23.360;2023-03-04T10:29:57;95163.66;;;8.99;100.00
3096;BME280;1558;42.700;23.360;2023-03-04T10:32:28;95258.50;;;9.63;100.00
3096;BME280;1558;42.700;23.360;2023-03-04T10:34:56;95250.16;;;9.76;100.00
3096;BME280;1558;42.700;23.360;2023-03-04T10:37:43;95224.66;;;9.94;100.00
3096;BME280;1558;42.700;23.360;2023-03-04T10:40:19;95236.41;;;10.10;100.00
3096;BME280;1558;42.700;23.360;2023-03-04T10:42:48;95230.41;;;10.13;100.00
3096;BME280;1558;42.700;23.360;2023-03-04T10:45:21;95224.34;;;10.37;100.00
3096;BME280;1558;42.700;23.360;2023-03-04T10:47:54;95213.13;;;10.47;100.00
3096;BME280;1558;42.700;23.360;2023-03-04T10:50:26;95195.97;;;10.52;99.57
3096;BME280;1558;42.700;23.360;2023-03-04T10:52:55;95224.75;;;10.60;96.01
3096;BME280;1558;42.700;23.360;2023-03-04T10:55:27;95204.16;;;10.43;95.79
3096;BME280;1558;42.700;23.360;2023-03-04T10:58:01;95199.50;;;10.76;99.03
3096;BME280;1558;42.700;23.360;2023-03-04T11:00:31;95214.03;;;11.08;96.68
3096;BME280;1558;42.700;23.360;2023-03-04T11:03:23;95162.38;;;10.61;94.82
3096;BME280;1558;42.700;23.360;2023-03-04T11:06:16;95205.50;;;10.49;92.40
3096;BME280;1558;42.700;23.360;2023-03-04T11:08:52;95177.91;;;10.19;95.66
3096;BME280;1558;42.700;23.360;2023-03-04T11:11:27;95183.31;;;10.64;96.05
3096;BME280;1558;42.700;23.360;2023-03-04T11:14:09;95189.00;;;10.63;94.78
3096;BME280;1558;42.700;23.360;2023-03-04T11:16:51;95181.22;;;10.49;94.28
3096;BME280;1558;42.700;23.360;2023-03-04T11:19:22;95184.06;;;10.53;94.90
3096;BME280;1558;42.700;23.360;2023-03-04T11:21:52;95176.00;;;10.65;94.68
3096;BME280;1558;42.700;23.360;2023-03-04T11:24:24;95168.78;;;10.03;92.46
3096;BME280;1558;42.700;23.360;2023-03-04T11:27:00;95148.81;;;10.25;95.80
3096;BME280;1558;42.700;23.360;2023-03-04T11:29:34;95165.91;;;10.29;94.56
3096;BME280;1558;42.700;23.360;2023-03-04T11:32:08;95150.59;;;10.21;95.32
3096;BME280;1558;42.700;23.360;2023-03-04T11:34:44;95143.97;;;10.87;96.76
3096;BME280;1558;42.700;23.360;2023-03-04T11:37:17;95148.25;;;11.01;92.21
3096;BME280;1558;42.700;23.360;2023-03-04T11:39:51;95123.16;;;10.64;90.55
3096;BME280;1558;42.700;23.360;2023-03-04T11:42:28;95150.59;;;10.78;88.75
3096;BME280;1558;42.700;23.360;2023-03-04T11:44:58;95148.78;;;10.46;90.13
3096;BME280;1558;42.700;23.360;2023-03-04T11:47:35;95141.34;;;9.89;91.75
3096;BME280;1558;42.700;23.360;2023-03-04T11:50:22;95113.00;;;9.71;94.74
3096;BME280;1558;42.700;23.360;2023-03-04T11:53:13;95142.78;;;9.87;95.35
3096;BME280;1558;42.700;23.360;2023-03-04T11:55:50;95088.38;;;9.61;96.68
3096;BME280;1558;42.700;23.360;2023-03-04T11:58:39;95121.13;;;9.83;95.41
3096;BME280;1558;42.700;23.360;2023-03-04T12:01:16;95082.88;;;9.57;96.82
3096;BME280;1558;42.700;23.360;2023-03-04T12:04:02;95112.00;;;9.76;98.24
3096;BME280;1558;42.700;23.360;2023-03-04T12:06:43;95120.06;;;9.96;98.26
3096;BME280;1558;42.700;23.360;2023-03-04T12:09:31;95118.59;;;10.19;98.53
3096;BME280;1558;42.700;23.360;2023-03-04T12:12:24;95121.41;;;10.23;96.89
3096;BME280;1558;42.700;23.360;2023-03-04T12:15:01;94977.69;;;9.09;95.64
3096;BME280;1558;42.700;23.360;2023-03-04T12:17:49;95111.81;;;9.81;97.02
3096;BME280;1558;42.700;23.360;2023-03-04T12:20:29;95107.97;;;9.82;97.14
3096;BME280;1558;42.700;23.360;2023-03-04T12:23:18;95110.41;;;9.75;98.51
3096;BME280;1558;42.700;23.360;2023-03-04T12:25:55;95105.78;;;9.84;98.85
3096;BME280;1558;42.700;23.360;2023-03-04T12:28:36;95076.78;;;9.81;99.89
3096;BME280;1558;42.700;23.360;2023-03-04T12:31:35;95089.97;;;9.94;98.94
3096;BME280;1558;42.700;23.360;2023-03-04T12:34:28;95070.81;;;9.75;99.06
3096;BME280;1558;42.700;23.360;2023-03-04T12:37:10;95091.81;;;9.82;98.99
3096;BME280;1558;42.700;23.360;2023-03-04T12:39:49;95073.50;;;9.75;98.86
3096;BME280;1558;42.700;23.360;2023-03-04T12:42:25;95091.66;;;9.99;99.53
3096;BME280;1558;42.700;23.360;2023-03-04T12:45:01;95061.31;;;9.90;98.98
3096;BME280;1558;42.700;23.360;2023-03-04T12:47:45;95081.56;;;9.96;97.38
3096;BME280;1558;42.700;23.360;2023-03-04T12:50:39;95069.25;;;9.74;97.85
3096;BME280;1558;42.700;23.360;2023-03-04T12:53:18;95029.56;;;9.50;98.88
3096;BME280;1558;42.700;23.360;2023-03-04T12:55:49;95072.91;;;9.90;98.98
3096;BME280;1558;42.700;23.360;2023-03-04T12:58:20;95078.28;;;9.90;98.32
3096;BME280;1558;42.700;23.360;2023-03-04T13:00:57;95060.25;;;9.70;99.01
3096;BME280;1558;42.700;23.360;2023-03-04T13:03:37;95028.13;;;9.65;99.97
3096;BME280;1558;42.700;23.360;2023-03-04T13:06:18;95058.47;;;10.07;98.82
3096;BME280;1558;42.700;23.360;2023-03-04T13:08:57;95035.72;;;9.84;97.84
3096;BME280;1558;42.700;23.360;2023-03-04T13:11:41;95055.59;;;9.79;97.79
3096;BME280;1558;42.700;23.360;2023-03-04T13:14:23;95047.38;;;9.76;98.65
3096;BME280;1558;42.700;23.360;2023-03-04T13:16:53;95040.25;;;9.59;98.98
3096;BME280;1558;42.700;23.360;2023-03-04T13:19:50;95045.81;;;9.54;99.73
3096;BME280;1558;42.700;23.360;2023-03-04T13:22:32;95046.28;;;9.56;100.00
3096;BME280;1558;42.700;23.360;2023-03-04T13:25:31;95041.16;;;9.63;100.00
3096;BME280;1558;42.700;23.360;2023-03-04T13:28:20;95039.38;;;9.67;100.00
3096;BME280;1558;42.700;23.360;2023-03-04T13:31:11;95047.66;;;9.62;99.81
3096;BME280;1558;42.700;23.360;2023-03-04T13:34:03;95020.56;;;9.46;100.00